createdAt,value
2022-08-08T03:49:09.335Z,45.40
2022-08-08T03:52:00.738Z,45.40
2022-08-08T03:55:56.536Z,45.26
2022-08-08T03:58:37.760Z,45.27
2022-08-08T04:02:12.553Z,45.08
2022-08-08T04:05:10.201Z,44.88
2022-08-08T04:08:32.945Z,44.23
2022-08-08T04:11:58.987Z,44.18
2022-08-08T04:15:04.913Z,44.39
2022-08-08T04:18:09.297Z,44.65
2022-08-08T04:21:22.969Z,44.19
2022-08-08T04:24:30.687Z,43.80
2022-08-08T04:28:02.899Z,43.39
2022-08-08T04:30:58.386Z,43.34
2022-08-08T04:34:03.462Z,44.45
2022-08-08T04:37:07.784Z,43.79
2022-08-08T04:40:12.387Z,43.85
2022-08-08T04:43:17.933Z,43.69
2022-08-08T04:46:25.105Z,43.99
2022-08-08T04:49:28.782Z,44.08
2022-08-08T04:52:58.689Z,44.16
2022-08-08T04:56:04.348Z,44.59
2022-08-08T04:59:06.905Z,44.96
2022-08-08T05:02:13.796Z,44.25
2022-08-08T05:05:20.387Z,44.66
2022-08-08T05:08:40.150Z,44.95
2022-08-08T05:11:47.533Z,43.77
2022-08-08T05:14:59.758Z,43.65
2022-08-08T05:18:02.290Z,43.73
2022-08-08T05:21:08.569Z,44.00
2022-08-08T05:24:16.979Z,43.20
2022-08-08T05:27:24.713Z,43.86
2022-08-08T05:30:28.337Z,46.65
2022-08-08T05:33:48.557Z,43.76
2022-08-08T05:36:54.231Z,43.52
2022-08-08T05:40:04.934Z,43.20
2022-08-08T05:43:38.122Z,42.69
2022-08-08T05:46:34.306Z,42.14
2022-08-08T05:49:38.075Z,41.72
2022-08-08T05:52:42.124Z,41.35
2022-08-08T05:56:07.832Z,41.55
2022-08-08T06:00:00.682Z,41.35
2022-08-08T06:03:06.194Z,41.96
2022-08-08T06:06:11.762Z,41.95
2022-08-08T06:09:58.299Z,41.93
2022-08-08T06:12:56.769Z,41.10
2022-08-08T06:15:58.927Z,41.64
2022-08-08T06:19:02.159Z,41.72
2022-08-08T06:22:32.105Z,42.06
2022-08-08T06:26:34.626Z,40.43
2022-08-08T06:29:26.316Z,40.40
2022-08-08T06:32:32.263Z,39.86
2022-08-08T06:36:08.915Z,40.15
2022-08-08T06:39:00.213Z,39.00
2022-08-08T06:42:12.957Z,39.40
2022-08-08T06:45:16.956Z,38.87
2022-08-08T06:48:19.494Z,38.92
2022-08-08T06:51:25.315Z,38.05
2022-08-08T06:54:49.019Z,39.10
2022-08-08T06:57:54.681Z,38.38
2022-08-08T07:01:01.832Z,39.00
2022-08-08T07:04:52.216Z,39.34
2022-08-08T07:08:09.462Z,41.21
2022-08-08T07:11:21.915Z,41.31
2022-08-08T07:14:49.394Z,44.72
2022-08-08T07:18:34.529Z,42.72
2022-08-08T07:21:31.084Z,43.10
2022-08-08T07:24:51.381Z,44.47
2022-08-08T07:28:07.487Z,43.60
2022-08-08T07:31:11.306Z,44.04
2022-08-08T07:34:20.287Z,42.89
2022-08-08T07:37:56.592Z,41.48
2022-08-08T07:41:04.489Z,39.44
2022-08-08T07:44:33.414Z,38.49
2022-08-08T07:47:38.889Z,38.09
2022-08-08T07:50:43.573Z,38.01
2022-08-08T07:54:02.693Z,37.95
2022-08-08T07:57:30.518Z,38.51
2022-08-08T08:00:43.625Z,38.51
2022-08-08T08:03:55.304Z,38.62
2022-08-08T08:07:00.990Z,38.37
2022-08-08T08:10:04.619Z,39.13
2022-08-08T08:14:08.603Z,39.31
2022-08-08T08:17:18.690Z,38.32
2022-08-08T08:20:30.251Z,38.75
2022-08-08T08:23:40.893Z,38.34
2022-08-08T08:26:46.924Z,38.24
2022-08-08T08:29:55.490Z,38.98
2022-08-08T08:33:00.100Z,39.12
2022-08-08T08:36:19.922Z,38.59
2022-08-08T08:39:24.123Z,38.56
2022-08-08T08:42:31.486Z,38.58
2022-08-08T08:45:39.853Z,38.57
2022-08-08T08:48:49.438Z,38.82
2022-08-08T08:51:53.497Z,38.55
2022-08-08T08:54:59.857Z,37.90
2022-08-08T08:58:06.444Z,38.10
2022-08-08T09:01:15.174Z,38.47
2022-08-08T09:04:31.577Z,38.44
2022-08-08T09:07:52.455Z,38.59
2022-08-08T09:11:08.077Z,39.82
2022-08-08T09:14:12.934Z,40.52
2022-08-08T09:17:19.246Z,40.12
2022-08-08T09:21:57.058Z,41.46
2022-08-08T09:24:04.050Z,42.21
2022-08-08T09:27:14.900Z,43.20
2022-08-08T09:30:27.748Z,43.53
2022-08-08T09:34:06.251Z,43.63
2022-08-08T09:37:57.269Z,44.57
2022-08-08T09:40:40.927Z,45.14
2022-08-08T09:44:06.630Z,45.77
2022-08-08T09:47:26.909Z,46.50
2022-08-08T09:50:37.553Z,46.95
2022-08-08T09:54:01.188Z,47.04
2022-08-08T09:57:17.027Z,47.27
2022-08-08T10:00:53.454Z,47.50
2022-08-08T10:03:46.869Z,48.23
2022-08-08T10:06:58.416Z,48.47
2022-08-08T10:10:03.007Z,48.63
2022-08-08T10:13:26.203Z,49.29
2022-08-08T10:16:39.922Z,48.85
2022-08-08T10:19:46.200Z,48.31
2022-08-08T10:23:02.003Z,48.92
2022-08-08T10:26:04.653Z,48.35
2022-08-08T10:29:58.579Z,47.52
2022-08-08T10:33:02.119Z,48.37
2022-08-08T10:36:20.403Z,49.19
2022-08-08T10:39:31.375Z,49.67
2022-08-08T10:42:48.609Z,50.45
2022-08-08T10:45:56.913Z,50.98
2022-08-08T10:49:01.302Z,51.87
2022-08-08T10:52:05.275Z,52.47
2022-08-08T10:55:14.036Z,52.88
2022-08-08T10:58:17.965Z,52.79
2022-08-08T11:01:21.142Z,53.81
2022-08-08T11:04:29.908Z,56.63
2022-08-08T11:08:31.274Z,57.35
2022-08-08T11:11:07.974Z,58.02
2022-08-08T11:14:27.618Z,57.51
2022-08-08T11:17:59.361Z,55.91
2022-08-08T11:20:57.790Z,55.25
2022-08-08T11:24:09.351Z,54.19
2022-08-08T11:27:20.173Z,54.29
2022-08-08T11:30:31.698Z,56.45
2022-08-08T11:33:53.528Z,57.30
2022-08-08T11:37:00.936Z,57.14
2022-08-08T11:40:22.494Z,56.57
2022-08-08T11:43:38.512Z,49.27
2022-08-08T11:46:42.278Z,54.35
2022-08-08T11:49:45.313Z,51.67
2022-08-08T11:52:53.359Z,46.33
2022-08-08T11:55:55.507Z,46.53
2022-08-08T11:59:05.936Z,47.21
2022-08-08T12:02:31.129Z,47.04
2022-08-08T12:05:33.653Z,47.09
2022-08-08T12:08:37.634Z,47.48
2022-08-08T12:11:42.733Z,48.51
2022-08-08T12:14:44.831Z,49.62
2022-08-08T12:17:57.192Z,48.75
2022-08-08T12:21:02.210Z,48.57
2022-08-08T12:24:11.508Z,47.12
2022-08-08T12:27:18.466Z,49.06
2022-08-08T12:30:31.610Z,48.92
2022-08-08T12:33:37.647Z,49.21
2022-08-08T12:37:05.367Z,49.49
2022-08-08T12:40:23.702Z,49.08
2022-08-08T12:43:43.762Z,49.33
2022-08-08T12:47:01.153Z,50.21
2022-08-08T12:50:11.326Z,51.35
2022-08-08T12:53:22.213Z,51.25
2022-08-08T12:56:38.884Z,51.51
2022-08-08T13:00:05.117Z,52.08
2022-08-08T13:03:24.486Z,51.98
2022-08-08T13:06:26.728Z,52.92
2022-08-08T13:10:05.853Z,51.51
2022-08-08T13:13:27.326Z,51.41
2022-08-08T13:16:33.920Z,52.18
2022-08-08T13:19:50.006Z,51.97
2022-08-08T13:23:26.962Z,52.29
2022-08-08T13:26:15.355Z,53.28
2022-08-08T13:29:17.902Z,52.90
2022-08-08T13:32:25.694Z,52.64
2022-08-08T13:35:29.646Z,51.71
2022-08-08T13:38:41.291Z,52.15
2022-08-08T13:41:54.661Z,52.55
2022-08-08T13:45:02.326Z,52.36
2022-08-08T13:48:15.099Z,53.42
2022-08-08T13:51:24.982Z,52.28
2022-08-08T13:54:49.460Z,53.75
2022-08-08T13:58:08.241Z,50.84
2022-08-08T14:01:19.083Z,51.75
2022-08-08T14:04:27.777Z,51.80
2022-08-08T14:07:33.691Z,51.11
2022-08-08T14:10:40.386Z,50.42
2022-08-08T14:13:59.041Z,50.62
2022-08-08T14:17:05.493Z,51.50
2022-08-08T14:20:14.859Z,53.84
2022-08-08T14:24:07.631Z,51.45
2022-08-08T14:27:16.166Z,51.44
2022-08-08T14:30:18.969Z,50.77
2022-08-08T14:33:26.651Z,51.25
2022-08-08T14:36:40.417Z,51.27
2022-08-08T14:39:49.531Z,50.50
2022-08-08T14:42:55.229Z,51.66
2022-08-08T14:46:05.912Z,48.95
2022-08-08T14:49:20.567Z,48.75
2022-08-08T14:52:46.305Z,50.02
2022-08-08T14:55:50.213Z,50.01
2022-08-08T14:59:03.942Z,49.96
2022-08-08T15:02:30.896Z,50.62
2022-08-08T15:05:42.613Z,50.45
2022-08-08T15:08:54.622Z,50.42
